createdAt,value
2018-10-09T00:01:02.165Z,10.99
2018-10-09T00:03:30.893Z,10.95
2018-10-09T00:05:59.631Z,11.21
2018-10-09T00:08:28.285Z,11.20
2018-10-09T00:10:56.997Z,11.20
2018-10-09T00:13:25.980Z,11.15
2018-10-09T00:15:54.635Z,11.17
2018-10-09T00:18:23.307Z,11.16
2018-10-09T00:20:51.970Z,11.13
2018-10-09T00:23:20.655Z,11.08
2018-10-09T00:25:49.366Z,11.08
2018-10-09T00:28:18.100Z,10.93
2018-10-09T00:30:46.816Z,10.88
2018-10-09T00:33:15.537Z,10.85
2018-10-09T00:35:44.263Z,11.01
2018-10-09T00:38:13.000Z,11.12
2018-10-09T00:40:41.703Z,11.05
2018-10-09T00:43:10.513Z,10.96
2018-10-09T00:45:39.249Z,11.00
2018-10-09T00:48:07.988Z,10.97
2018-10-09T00:50:36.720Z,10.86
2018-10-09T00:53:05.566Z,8.89
2018-10-09T00:55:34.366Z,10.53
2018-10-09T00:58:03.024Z,10.47
2018-10-09T01:00:31.812Z,10.58
2018-10-09T01:03:00.484Z,10.67
2018-10-09T01:05:29.169Z,10.62
2018-10-09T01:07:57.935Z,10.62
2018-10-09T01:10:26.617Z,10.56
2018-10-09T01:12:55.374Z,10.61
2018-10-09T01:15:24.045Z,10.73
2018-10-09T01:17:52.741Z,10.73
2018-10-09T01:20:31.320Z,10.67
2018-10-09T01:23:00.827Z,10.65
2018-10-09T01:25:29.521Z,10.57
2018-10-09T01:27:58.249Z,10.40
2018-10-09T01:30:26.965Z,10.26
2018-10-09T01:32:55.918Z,10.24
2018-10-09T01:35:24.602Z,10.25
2018-10-09T01:37:53.300Z,10.14
2018-10-09T01:40:21.999Z,10.17
2018-10-09T01:42:50.791Z,10.12
2018-10-09T01:45:19.591Z,10.16
2018-10-09T01:47:48.369Z,10.02
2018-10-09T01:50:17.103Z,10.00
2018-10-09T01:52:45.931Z,9.95
2018-10-09T01:55:14.602Z,10.06
2018-10-09T01:57:43.322Z,9.89
2018-10-09T02:00:12.417Z,9.82
2018-10-09T02:02:41.246Z,9.92
2018-10-09T02:05:10.028Z,10.01
2018-10-09T02:07:38.710Z,9.93
2018-10-09T02:10:07.644Z,9.80
2018-10-09T02:12:36.276Z,9.81
2018-10-09T02:15:05.389Z,9.80
2018-10-09T02:17:34.156Z,9.75
2018-10-09T02:20:02.828Z,9.84
2018-10-09T02:22:31.556Z,9.98
2018-10-09T02:25:00.241Z,10.04
2018-10-09T02:27:29.000Z,10.07
2018-10-09T02:29:57.652Z,10.05
2018-10-09T02:32:26.351Z,8.31
2018-10-09T02:34:55.051Z,10.14
2018-10-09T02:37:23.823Z,10.08
2018-10-09T02:39:52.505Z,10.08
2018-10-09T02:42:21.145Z,10.07
2018-10-09T02:44:49.856Z,9.99
2018-10-09T02:47:18.600Z,9.91
2018-10-09T02:49:47.271Z,9.87
2018-10-09T02:52:15.943Z,9.85
2018-10-09T02:54:44.641Z,9.86
2018-10-09T02:57:13.360Z,9.92
2018-10-09T02:59:42.043Z,9.92
2018-10-09T03:02:10.678Z,9.85
2018-10-09T03:04:39.291Z,9.72
2018-10-09T03:07:08.020Z,9.70
2018-10-09T03:09:36.655Z,9.65
2018-10-09T03:12:05.370Z,9.66
2018-10-09T03:14:34.070Z,9.58
2018-10-09T03:17:02.746Z,9.53
2018-10-09T03:19:31.406Z,9.53
2018-10-09T03:22:00.070Z,9.43
2018-10-09T03:24:28.714Z,9.39
2018-10-09T03:26:57.396Z,9.41
2018-10-09T03:29:26.107Z,9.48
2018-10-09T03:31:54.781Z,9.56
2018-10-09T03:34:23.557Z,9.56
2018-10-09T03:36:52.269Z,9.54
2018-10-09T03:39:20.960Z,9.46
2018-10-09T03:41:49.652Z,9.48
2018-10-09T03:44:18.384Z,9.32
2018-10-09T03:46:47.067Z,9.13
2018-10-09T03:49:15.737Z,9.10
2018-10-09T03:51:44.481Z,9.08
2018-10-09T03:54:13.176Z,8.97
2018-10-09T03:56:41.898Z,8.92
2018-10-09T03:59:10.573Z,8.79
2018-10-09T04:01:39.275Z,8.82
2018-10-09T04:04:08.117Z,8.80
2018-10-09T04:06:36.885Z,8.86
2018-10-09T04:09:08.984Z,8.74
2018-10-09T04:11:38.083Z,8.82
2018-10-09T04:14:07.038Z,8.89
2018-10-09T04:16:36.356Z,8.98
2018-10-09T04:19:05.088Z,8.87
2018-10-09T04:21:33.767Z,8.87
2018-10-09T04:24:02.436Z,8.75
2018-10-09T04:26:31.075Z,8.64
2018-10-09T04:28:59.751Z,8.63
2018-10-09T04:31:28.439Z,8.67
2018-10-09T04:33:57.090Z,8.68
2018-10-09T04:36:25.776Z,8.68
2018-10-09T04:38:54.808Z,8.69
2018-10-09T04:41:23.475Z,8.83
2018-10-09T04:43:52.232Z,9.07
2018-10-09T04:46:21.301Z,9.27
2018-10-09T04:48:50.007Z,9.59
2018-10-09T04:51:18.681Z,9.90
2018-10-09T04:53:47.443Z,10.12
2018-10-09T04:56:16.476Z,10.25
2018-10-09T04:58:45.141Z,10.40
2018-10-09T05:01:13.834Z,10.72
2018-10-09T05:03:42.535Z,10.82
2018-10-09T05:06:11.532Z,11.21
2018-10-09T05:08:40.324Z,11.58
2018-10-09T05:11:09.112Z,11.89
2018-10-09T05:13:37.982Z,12.16
2018-10-09T05:16:06.660Z,12.40
2018-10-09T05:18:35.332Z,12.69
2018-10-09T05:21:04.064Z,12.88
2018-10-09T05:23:32.732Z,13.09
2018-10-09T05:26:01.465Z,13.18
2018-10-09T05:28:30.113Z,13.00
2018-10-09T05:30:58.948Z,13.14
2018-10-09T05:33:27.766Z,13.27
2018-10-09T05:35:56.430Z,13.39
2018-10-09T05:38:25.108Z,13.72
2018-10-09T05:40:53.812Z,14.02
2018-10-09T05:43:22.470Z,14.41
2018-10-09T05:45:51.149Z,14.72
2018-10-09T05:48:19.848Z,14.90
2018-10-09T05:50:48.555Z,14.73
2018-10-09T05:53:17.220Z,14.43
2018-10-09T05:55:45.892Z,14.38
2018-10-09T05:58:14.550Z,14.47
2018-10-09T06:00:43.308Z,14.73
2018-10-09T06:03:12.054Z,14.77
2018-10-09T06:05:40.747Z,15.04
2018-10-09T06:08:09.464Z,15.43
2018-10-09T06:10:38.152Z,15.47
2018-10-09T06:13:06.993Z,15.83
2018-10-09T06:15:35.886Z,16.03
2018-10-09T06:18:04.609Z,16.21
2018-10-09T06:20:33.288Z,16.32
2018-10-09T06:23:01.931Z,16.28
2018-10-09T06:25:30.575Z,16.41
2018-10-09T06:27:59.314Z,16.33
2018-10-09T06:30:28.037Z,16.30
2018-10-09T06:32:56.720Z,16.45
2018-10-09T06:35:25.435Z,16.50
2018-10-09T06:37:54.165Z,16.25
2018-10-09T06:40:22.878Z,16.41
2018-10-09T06:42:53.188Z,16.43
2018-10-09T06:45:21.905Z,16.52
2018-10-09T06:47:50.626Z,16.82
2018-10-09T06:50:19.365Z,17.11
2018-10-09T06:52:48.088Z,17.31
2018-10-09T06:55:16.872Z,17.42
2018-10-09T06:57:45.631Z,17.99
2018-10-09T07:00:23.197Z,18.08
2018-10-09T07:02:51.789Z,18.57
2018-10-09T07:05:20.484Z,17.73
2018-10-09T07:07:49.166Z,17.10
2018-10-09T07:10:17.958Z,17.31
2018-10-09T07:12:46.732Z,17.52
2018-10-09T07:15:15.458Z,18.23
2018-10-09T07:17:44.116Z,18.66
2018-10-09T07:20:12.793Z,19.30
2018-10-09T07:22:41.496Z,19.75
2018-10-09T07:25:10.225Z,19.73
2018-10-09T07:27:44.431Z,19.90
2018-10-09T07:30:13.211Z,19.38
2018-10-09T07:32:41.870Z,19.67
2018-10-09T07:35:11.767Z,19.48
2018-10-09T07:37:40.530Z,19.53
2018-10-09T07:40:09.243Z,19.69
2018-10-09T07:42:37.904Z,20.10
2018-10-09T07:45:06.620Z,20.53
2018-10-09T07:47:35.283Z,20.75
2018-10-09T07:50:04.003Z,20.60
2018-10-09T07:52:34.548Z,20.68
2018-10-09T07:55:03.775Z,21.11
2018-10-09T07:57:32.574Z,21.05
2018-10-09T08:00:04.817Z,20.82
2018-10-09T08:02:33.756Z,21.20
2018-10-09T08:05:02.416Z,21.62
2018-10-09T08:07:31.143Z,21.88
2018-10-09T08:10:01.531Z,21.62
2018-10-09T08:12:30.796Z,21.66
2018-10-09T08:14:59.518Z,22.11
2018-10-09T08:17:29.288Z,21.85
2018-10-09T08:19:58.183Z,21.82
2018-10-09T08:22:26.926Z,21.78
2018-10-09T08:24:56.361Z,21.42
2018-10-09T08:27:25.009Z,21.66
2018-10-09T08:29:53.651Z,22.22
2018-10-09T08:32:22.399Z,21.83
2018-10-09T08:34:52.590Z,21.71
2018-10-09T08:37:22.336Z,22.03
2018-10-09T08:39:51.018Z,21.99
2018-10-09T08:42:19.803Z,22.44
2018-10-09T08:44:48.505Z,21.79
2018-10-09T08:47:17.144Z,21.77
2018-10-09T08:49:45.800Z,21.83
2018-10-09T08:52:14.449Z,21.56
2018-10-09T08:54:43.092Z,21.89
2018-10-09T08:57:11.837Z,22.18
2018-10-09T08:59:40.536Z,21.78
2018-10-09T09:02:09.206Z,22.17
2018-10-09T09:04:37.938Z,21.91
2018-10-09T09:07:06.652Z,22.29
2018-10-09T09:09:35.575Z,22.18
2018-10-09T09:12:04.302Z,22.53
2018-10-09T09:14:36.133Z,22.91
2018-10-09T09:17:05.585Z,22.76
2018-10-09T09:19:34.393Z,22.33
2018-10-09T09:22:06.666Z,22.35
2018-10-09T09:24:35.437Z,22.65
2018-10-09T09:27:05.180Z,22.89
2018-10-09T09:29:34.904Z,23.01
2018-10-09T09:32:04.500Z,22.50
2018-10-09T09:34:33.141Z,22.48
2018-10-09T09:37:01.955Z,22.79
2018-10-09T09:39:30.694Z,23.38
2018-10-09T09:41:59.373Z,23.66
2018-10-09T09:44:28.113Z,23.43
2018-10-09T09:46:56.840Z,23.10
2018-10-09T09:49:25.535Z,22.91
2018-10-09T09:51:56.544Z,23.80
2018-10-09T09:54:25.259Z,24.01
2018-10-09T09:56:54.936Z,24.16
2018-10-09T09:59:27.402Z,23.78
2018-10-09T10:01:56.113Z,23.70
2018-10-09T10:04:24.800Z,23.17
2018-10-09T10:06:53.500Z,23.35
2018-10-09T10:09:22.258Z,24.00
2018-10-09T10:11:50.890Z,24.59
2018-10-09T10:14:20.589Z,24.25
2018-10-09T10:16:49.286Z,24.18
2018-10-09T10:19:17.962Z,24.07
2018-10-09T10:21:46.754Z,24.37
2018-10-09T10:24:15.544Z,24.50
2018-10-09T10:26:44.238Z,24.06
2018-10-09T10:29:12.971Z,24.33
2018-10-09T10:31:41.648Z,24.16
2018-10-09T10:34:10.383Z,23.91
2018-10-09T10:36:39.095Z,24.40
2018-10-09T10:39:10.083Z,24.52
2018-10-09T10:41:38.801Z,24.86
2018-10-09T10:44:07.498Z,24.60
2018-10-09T10:46:40.188Z,23.94
2018-10-09T10:49:11.258Z,23.92
2018-10-09T10:51:39.980Z,24.04
2018-10-09T10:54:08.676Z,24.05
2018-10-09T10:56:37.440Z,24.24
2018-10-09T10:59:06.135Z,24.60
2018-10-09T11:01:35.545Z,24.55
2018-10-09T11:04:04.279Z,24.33
2018-10-09T11:06:33.038Z,24.69
2018-10-09T11:09:01.711Z,24.22
2018-10-09T11:11:30.419Z,24.43
2018-10-09T11:13:59.165Z,24.56
2018-10-09T11:16:27.807Z,23.89
2018-10-09T11:18:56.453Z,23.44
2018-10-09T11:21:25.256Z,23.93
2018-10-09T11:23:53.882Z,24.27
2018-10-09T11:26:22.630Z,24.55
2018-10-09T11:28:51.240Z,24.08
2018-10-09T11:31:20.002Z,23.12
2018-10-09T11:33:48.722Z,23.68
2018-10-09T11:36:17.426Z,23.71
2018-10-09T11:38:46.091Z,22.86
2018-10-09T11:41:14.728Z,23.65
2018-10-09T11:43:43.445Z,23.97
2018-10-09T11:46:12.132Z,23.86
2018-10-09T11:48:40.779Z,23.36
2018-10-09T11:51:09.452Z,23.53
2018-10-09T11:53:38.132Z,23.34
2018-10-09T11:56:06.813Z,23.44
2018-10-09T11:58:35.560Z,23.96
2018-10-09T12:01:06.710Z,23.10
2018-10-09T12:03:35.428Z,23.06
2018-10-09T12:06:04.209Z,23.73
2018-10-09T12:08:32.953Z,23.90
2018-10-09T12:11:01.958Z,23.64
2018-10-09T12:13:30.721Z,23.43
2018-10-09T12:15:59.459Z,23.12
2018-10-09T12:18:28.148Z,23.37
2018-10-09T12:20:56.817Z,23.83
2018-10-09T12:23:25.611Z,23.13
2018-10-09T12:25:54.275Z,23.69
2018-10-09T12:28:23.054Z,23.99
2018-10-09T12:30:51.746Z,23.99
2018-10-09T12:33:20.536Z,24.00
2018-10-09T12:35:49.217Z,24.02
2018-10-09T12:38:18.696Z,24.07
2018-10-09T12:40:47.381Z,23.56
2018-10-09T12:43:16.043Z,24.02
2018-10-09T12:45:44.765Z,24.06
2018-10-09T12:48:13.564Z,24.19
2018-10-09T12:50:42.228Z,24.13
2018-10-09T12:53:10.952Z,23.72
2018-10-09T12:55:39.629Z,23.89
2018-10-09T12:58:08.345Z,23.65
2018-10-09T13:00:37.042Z,23.44
2018-10-09T13:03:06.035Z,23.25
2018-10-09T13:05:34.691Z,23.28
2018-10-09T13:08:03.403Z,23.14
2018-10-09T13:10:32.070Z,22.64
2018-10-09T13:13:00.771Z,22.43
2018-10-09T13:15:29.482Z,22.04
2018-10-09T13:17:58.236Z,21.86
2018-10-09T13:20:26.951Z,21.74
2018-10-09T13:22:55.720Z,21.58
2018-10-09T13:25:24.406Z,21.46
2018-10-09T13:30:20.848Z,21.18
2018-10-09T13:32:49.605Z,21.33
2018-10-09T13:35:18.410Z,21.50
2018-10-09T13:37:47.060Z,21.51
2018-10-09T13:40:15.784Z,21.43
2018-10-09T13:42:44.464Z,21.00
2018-10-09T13:45:13.148Z,20.75
2018-10-09T13:47:41.891Z,20.48
2018-10-09T13:50:10.627Z,20.58
2018-10-09T13:52:39.399Z,20.80
2018-10-09T13:55:08.127Z,20.83
2018-10-09T13:57:37.066Z,20.94
2018-10-09T14:00:07.158Z,20.87
2018-10-09T14:02:35.843Z,20.84
2018-10-09T14:05:04.682Z,20.74
2018-10-09T14:07:33.339Z,20.56
2018-10-09T14:10:02.072Z,20.65
2018-10-09T14:12:30.849Z,20.72
2018-10-09T14:14:59.562Z,20.73
2018-10-09T14:17:28.285Z,20.69
2018-10-09T14:19:56.972Z,20.48
2018-10-09T14:22:25.770Z,20.48
2018-10-09T14:24:54.399Z,20.47
2018-10-09T14:27:23.057Z,20.41
2018-10-09T14:29:51.744Z,20.26
2018-10-09T14:32:20.404Z,20.19
2018-10-09T14:34:49.208Z,20.12
2018-10-09T14:37:17.860Z,20.10
2018-10-09T14:39:46.569Z,19.99
2018-10-09T14:42:15.331Z,19.83
2018-10-09T14:44:44.117Z,19.77
2018-10-09T14:47:12.832Z,19.79
2018-10-09T14:49:42.348Z,19.68
2018-10-09T14:52:11.049Z,19.66
2018-10-09T14:54:39.748Z,19.60
2018-10-09T14:57:08.448Z,19.67
2018-10-09T14:59:37.126Z,19.64
2018-10-09T15:02:05.826Z,19.58
2018-10-09T15:04:34.573Z,19.44
2018-10-09T15:07:03.271Z,19.39
2018-10-09T15:09:31.975Z,19.27
2018-10-09T15:12:00.617Z,19.23
2018-10-09T15:14:29.888Z,19.21
2018-10-09T15:16:58.741Z,19.13
2018-10-09T15:19:27.323Z,19.10
2018-10-09T15:21:56.008Z,18.98
2018-10-09T15:24:24.701Z,18.88
2018-10-09T15:26:53.411Z,18.78
2018-10-09T15:29:22.089Z,18.75
2018-10-09T15:31:50.760Z,18.73
2018-10-09T15:34:19.581Z,18.59
2018-10-09T15:36:48.294Z,18.52
2018-10-09T15:39:16.962Z,18.44
2018-10-09T15:41:45.710Z,18.39
2018-10-09T15:44:14.427Z,18.26
2018-10-09T15:46:43.105Z,18.18
2018-10-09T15:49:11.793Z,18.06
2018-10-09T15:51:40.497Z,18.03
2018-10-09T15:54:09.220Z,17.93
2018-10-09T15:56:37.975Z,17.86
2018-10-09T15:59:06.796Z,17.78
2018-10-09T16:01:35.473Z,17.72
2018-10-09T16:04:04.217Z,17.65
2018-10-09T16:06:32.996Z,17.53
2018-10-09T16:09:01.701Z,17.52
2018-10-09T16:11:30.707Z,17.40
2018-10-09T16:13:59.593Z,17.31
2018-10-09T16:16:28.293Z,17.15
2018-10-09T16:18:56.940Z,17.10
2018-10-09T16:21:25.629Z,17.10
2018-10-09T16:23:54.300Z,17.12
2018-10-09T16:26:22.989Z,17.06
2018-10-09T16:28:51.702Z,16.97
2018-10-09T16:31:20.410Z,16.90
2018-10-09T16:33:49.605Z,16.85
2018-10-09T16:36:18.284Z,16.80
2018-10-09T16:38:47.036Z,16.78
2018-10-09T16:41:15.759Z,16.68
2018-10-09T16:43:44.958Z,16.68
2018-10-09T16:46:14.040Z,16.61
2018-10-09T16:48:43.424Z,16.49
2018-10-09T16:51:12.225Z,16.44
2018-10-09T16:53:41.494Z,16.28
2018-10-09T16:56:10.496Z,16.15
2018-10-09T16:58:39.219Z,15.99
2018-10-09T17:01:07.953Z,16.01
2018-10-09T17:03:36.621Z,16.03
2018-10-09T17:06:05.346Z,16.08
2018-10-09T17:08:34.037Z,16.12
2018-10-09T17:11:02.673Z,16.12
2018-10-09T17:13:31.376Z,16.06
2018-10-09T17:16:00.086Z,16.19
2018-10-09T17:18:30.277Z,16.39
2018-10-09T17:20:59.817Z,16.55
2018-10-09T17:23:28.689Z,16.65
2018-10-09T17:25:57.755Z,16.57
2018-10-09T17:28:26.522Z,16.40
2018-10-09T17:30:55.217Z,16.31
2018-10-09T17:33:23.950Z,16.34
2018-10-09T17:35:52.639Z,16.20
2018-10-09T17:38:21.315Z,15.82
2018-10-09T17:40:50.041Z,15.65
2018-10-09T17:43:18.770Z,15.73
2018-10-09T17:45:47.412Z,15.77
2018-10-09T17:48:16.210Z,15.93
2018-10-09T17:50:44.952Z,15.99
2018-10-09T17:53:13.716Z,16.02
2018-10-09T17:55:42.398Z,15.91
2018-10-09T17:58:11.308Z,15.75
2018-10-09T18:00:40.168Z,15.90
2018-10-09T18:03:08.875Z,15.91
2018-10-09T18:05:37.566Z,15.75
2018-10-09T18:08:06.787Z,15.64
2018-10-09T18:10:35.813Z,15.49
2018-10-09T18:13:04.674Z,15.32
2018-10-09T18:15:33.417Z,15.20
2018-10-09T18:18:02.153Z,15.18
2018-10-09T18:20:31.220Z,15.21
2018-10-09T18:22:59.911Z,15.15
2018-10-09T18:25:28.640Z,15.15
2018-10-09T18:27:57.370Z,15.29
2018-10-09T18:30:26.084Z,15.15
2018-10-09T18:32:54.936Z,15.28
2018-10-09T18:35:23.497Z,15.18
2018-10-09T18:37:52.185Z,15.15
2018-10-09T18:40:20.910Z,15.12
2018-10-09T18:42:49.654Z,15.36
2018-10-09T18:45:18.511Z,15.56
2018-10-09T18:47:47.191Z,15.55
2018-10-09T18:50:15.918Z,15.38
2018-10-09T18:52:44.580Z,15.09
2018-10-09T18:55:14.816Z,14.94
2018-10-09T18:57:43.705Z,14.75
2018-10-09T19:00:13.439Z,14.59
2018-10-09T19:02:42.192Z,14.48
2018-10-09T19:05:11.378Z,14.41
2018-10-09T19:07:40.410Z,14.50
2018-10-09T19:10:09.741Z,14.37
2018-10-09T19:12:38.464Z,14.14
2018-10-09T19:15:07.642Z,14.17
2018-10-09T19:17:36.417Z,14.07
2018-10-09T19:20:05.509Z,13.91
2018-10-09T19:22:34.262Z,13.96
2018-10-09T19:25:03.028Z,13.91
2018-10-09T19:27:31.747Z,13.89
2018-10-09T19:30:00.609Z,13.79
2018-10-09T19:32:29.428Z,13.69
2018-10-09T19:34:58.160Z,13.69
2018-10-09T19:37:27.039Z,13.75
2018-10-09T19:39:55.751Z,13.76
2018-10-09T19:42:24.630Z,13.75
2018-10-09T19:44:53.577Z,13.70
2018-10-09T19:47:23.737Z,13.70
2018-10-09T19:49:52.726Z,13.67
2018-10-09T19:52:21.458Z,13.69
2018-10-09T19:54:50.203Z,13.68
2018-10-09T19:57:18.911Z,13.68
2018-10-09T19:59:47.554Z,13.73
2018-10-09T20:02:16.352Z,13.68
2018-10-09T20:04:46.037Z,13.65
2018-10-09T20:07:14.988Z,13.48
2018-10-09T20:09:43.841Z,13.40
2018-10-09T20:12:12.647Z,13.32
2018-10-09T20:14:41.365Z,13.23
2018-10-09T20:17:10.033Z,13.13
2018-10-09T20:19:38.793Z,13.13
2018-10-09T20:22:10.205Z,13.18
2018-10-09T20:24:39.097Z,13.24
2018-10-09T20:27:07.933Z,13.19
2018-10-09T20:29:36.589Z,13.16
2018-10-09T20:32:11.783Z,13.11
2018-10-09T20:34:40.929Z,13.06
2018-10-09T20:37:10.897Z,13.00
2018-10-09T20:39:39.645Z,12.93
2018-10-09T20:42:09.065Z,12.87
2018-10-09T20:44:37.759Z,12.85
2018-10-09T20:47:06.716Z,12.80
2018-10-09T20:49:36.376Z,12.70
2018-10-09T20:52:05.194Z,12.65
2018-10-09T20:54:33.893Z,12.72
2018-10-09T20:57:02.641Z,12.70
2018-10-09T20:59:31.366Z,12.61
2018-10-09T21:02:00.047Z,12.59
2018-10-09T21:04:28.800Z,12.54
2018-10-09T21:06:57.494Z,12.31
2018-10-09T21:09:26.183Z,12.13
2018-10-09T21:11:54.924Z,11.99
2018-10-09T21:14:23.621Z,11.88
2018-10-09T21:16:52.417Z,11.85
2018-10-09T21:19:21.118Z,11.67
2018-10-09T21:21:49.789Z,11.68
2018-10-09T21:24:18.465Z,11.56
2018-10-09T21:26:47.511Z,11.54
2018-10-09T21:29:16.224Z,11.58
2018-10-09T21:31:45.493Z,11.60
2018-10-09T21:34:14.241Z,11.51
2018-10-09T21:36:42.998Z,11.31
2018-10-09T21:39:12.492Z,11.12
2018-10-09T21:41:41.375Z,11.21
2018-10-09T21:44:09.998Z,11.30
2018-10-09T21:46:38.773Z,11.22
2018-10-09T21:49:07.596Z,11.12
2018-10-09T21:51:36.296Z,11.19
2018-10-09T21:54:04.987Z,11.26
2018-10-09T21:56:33.680Z,11.36
2018-10-09T21:59:02.413Z,11.26
2018-10-09T22:01:31.076Z,10.95
2018-10-09T22:03:59.754Z,10.90
2018-10-09T22:06:28.479Z,10.89
2018-10-09T22:08:57.148Z,10.91
2018-10-09T22:11:26.096Z,10.93
2018-10-09T22:13:54.723Z,10.84
2018-10-09T22:16:23.376Z,10.70
2018-10-09T22:18:52.015Z,10.63
2018-10-09T22:21:20.664Z,10.66
2018-10-09T22:23:49.405Z,10.75
2018-10-09T22:26:18.149Z,10.78
2018-10-09T22:28:46.821Z,10.92
2018-10-09T22:31:15.496Z,10.81
2018-10-09T22:33:44.183Z,9.66
2018-10-09T22:36:12.833Z,10.71
2018-10-09T22:38:41.512Z,10.77
2018-10-09T22:41:10.203Z,10.68
2018-10-09T22:43:38.877Z,10.63
2018-10-09T22:46:07.592Z,10.62
2018-10-09T22:48:36.258Z,10.73
2018-10-09T22:51:04.880Z,10.67
2018-10-09T22:53:33.681Z,10.58
2018-10-09T22:56:02.600Z,10.63
2018-10-09T22:58:31.233Z,10.67
2018-10-09T23:00:59.881Z,10.65
2018-10-09T23:03:28.612Z,10.55
2018-10-09T23:05:57.265Z,10.48
2018-10-09T23:08:25.923Z,10.45
2018-10-09T23:10:54.611Z,10.42
2018-10-09T23:13:23.297Z,10.39
2018-10-09T23:15:52.022Z,10.41
2018-10-09T23:18:20.693Z,10.44
2018-10-09T23:20:49.395Z,10.45
2018-10-09T23:23:18.076Z,10.26
2018-10-09T23:25:46.794Z,10.21
2018-10-09T23:28:15.477Z,10.14
2018-10-09T23:30:44.241Z,10.03
2018-10-09T23:33:12.990Z,9.91
2018-10-09T23:35:41.745Z,9.87
2018-10-09T23:38:10.479Z,9.81
2018-10-09T23:40:39.200Z,9.73
2018-10-09T23:43:07.938Z,9.62
2018-10-09T23:45:36.652Z,9.51
2018-10-09T23:48:09.114Z,9.48
2018-10-09T23:50:40.830Z,9.54
2018-10-09T23:53:09.614Z,9.61
2018-10-09T23:55:38.484Z,9.62
2018-10-09T23:58:07.622Z,9.60
